sensor_id;sensor_type;location;lat;lon;timestamp;pressure;altitude;pressure_sealevel;temperature;humidity
9462;BME280;4769;42.660;23.262;2023-03-13T00:00:06;94206.44;;;3.13;56.89
9462;BME280;4769;42.660;23.262;2023-03-13T00:02:32;94196.19;;;2.98;58.29
9462;BME280;4769;42.660;23.262;2023-03-13T00:04:57;94207.63;;;3.10;57.67
9462;BME280;4769;42.660;23.262;2023-03-13T00:07:23;94208.00;;;3.01;57.92
9462;BME280;4769;42.660;23.262;2023-03-13T00:09:49;94213.13;;;2.88;59.11
9462;BME280;4769;42.660;23.262;2023-03-13T00:12:14;94202.44;;;2.76;58.13
9462;BME280;4769;42.660;23.262;2023-03-13T00:14:43;94210.84;;;2.78;58.46
9462;BME280;4769;42.660;23.262;2023-03-13T00:17:08;94210.03;;;2.71;59.05
9462;BME280;4769;42.660;23.262;2023-03-13T00:19:34;94219.44;;;2.72;59.05
9462;BME280;4769;42.660;23.262;2023-03-13T00:22:00;94218.69;;;2.51;58.80
9462;BME280;4769;42.660;23.262;2023-03-13T00:24:26;94220.41;;;2.44;59.31
9462;BME280;4769;42.660;23.262;2023-03-13T00:26:51;94227.81;;;2.68;58.59
9462;BME280;4769;42.660;23.262;2023-03-13T00:29:17;94220.53;;;2.57;58.90
9462;BME280;4769;42.660;23.262;2023-03-13T00:31:45;94214.91;;;2.32;59.55
9462;BME280;4769;42.660;23.262;2023-03-13T00:34:11;94216.25;;;2.49;58.76
9462;BME280;4769;42.660;23.262;2023-03-13T00:36:37;94225.81;;;2.42;59.69
9462;BME280;4769;42.660;23.262;2023-03-13T00:39:04;94225.06;;;2.48;59.41
9462;BME280;4769;42.660;23.262;2023-03-13T00:41:31;94214.97;;;2.39;59.22
9462;BME280;4769;42.660;23.262;2023-03-13T00:43:58;94216.97;;;2.37;60.43
9462;BME280;4769;42.660;23.262;2023-03-13T00:46:25;94227.53;;;2.56;61.18
9462;BME280;4769;42.660;23.262;2023-03-13T00:48:54;94227.84;;;2.74;60.98
9462;BME280;4769;42.660;23.262;2023-03-13T00:51:21;94221.31;;;2.85;60.63
9462;BME280;4769;42.660;23.262;2023-03-13T00:53:47;94217.56;;;2.94;59.81
9462;BME280;4769;42.660;23.262;2023-03-13T00:56:15;94208.88;;;2.80;57.85
9462;BME280;4769;42.660;23.262;2023-03-13T00:58:42;94220.66;;;2.76;60.47
9462;BME280;4769;42.660;23.262;2023-03-13T01:01:10;94219.63;;;2.71;58.24
9462;BME280;4769;42.660;23.262;2023-03-13T01:03:38;94215.97;;;2.38;59.88
9462;BME280;4769;42.660;23.262;2023-03-13T01:06:07;94228.38;;;2.36;60.41
9462;BME280;4769;42.660;23.262;2023-03-13T01:08:34;94217.34;;;2.34;60.88
9462;BME280;4769;42.660;23.262;2023-03-13T01:11:00;94210.41;;;2.41;61.39
9462;BME280;4769;42.660;23.262;2023-03-13T01:13:27;94196.56;;;2.40;61.52
9462;BME280;4769;42.660;23.262;2023-03-13T01:15:53;94202.19;;;2.44;60.91
9462;BME280;4769;42.660;23.262;2023-03-13T01:18:19;94202.66;;;2.54;59.49
9462;BME280;4769;42.660;23.262;2023-03-13T01:20:44;94199.28;;;2.53;57.26
9462;BME280;4769;42.660;23.262;2023-03-13T01:23:13;94216.13;;;2.57;59.29
9462;BME280;4769;42.660;23.262;2023-03-13T01:25:39;94217.59;;;2.66;60.24
9462;BME280;4769;42.660;23.262;2023-03-13T01:28:04;94225.06;;;2.48;60.09
9462;BME280;4769;42.660;23.262;2023-03-13T01:30:30;94229.63;;;2.46;60.81
9462;BME280;4769;42.660;23.262;2023-03-13T01:32:56;94221.84;;;2.46;61.59
9462;BME280;4769;42.660;23.262;2023-03-13T01:35:22;94226.72;;;2.56;62.02
9462;BME280;4769;42.660;23.262;2023-03-13T01:37:47;94239.09;;;2.54;61.88
9462;BME280;4769;42.660;23.262;2023-03-13T01:40:16;94223.47;;;2.47;61.43
9462;BME280;4769;42.660;23.262;2023-03-13T01:42:49;94238.56;;;2.37;61.53
9462;BME280;4769;42.660;23.262;2023-03-13T01:48:10;94233.88;;;2.47;62.85
9462;BME280;4769;42.660;23.262;2023-03-13T01:50:36;94238.09;;;2.48;61.33
9462;BME280;4769;42.660;23.262;2023-03-13T01:53:01;94236.25;;;2.49;61.77
9462;BME280;4769;42.660;23.262;2023-03-13T01:55:30;94235.31;;;2.50;60.94
9462;BME280;4769;42.660;23.262;2023-03-13T01:57:56;94231.94;;;2.56;59.69
9462;BME280;4769;42.660;23.262;2023-03-13T02:00:23;94233.22;;;2.66;59.38
9462;BME280;4769;42.660;23.262;2023-03-13T02:02:54;94233.91;;;2.54;58.11
9462;BME280;4769;42.660;23.262;2023-03-13T02:05:22;94236.84;;;2.44;59.43
9462;BME280;4769;42.660;23.262;2023-03-13T02:07:53;94225.13;;;2.55;59.62
9462;BME280;4769;42.660;23.262;2023-03-13T02:10:22;94228.34;;;2.57;60.23
9462;BME280;4769;42.660;23.262;2023-03-13T02:12:52;94223.31;;;2.55;60.01
9462;BME280;4769;42.660;23.262;2023-03-13T02:15:20;94242.81;;;2.66;59.82
9462;BME280;4769;42.660;23.262;2023-03-13T02:17:48;94240.81;;;2.68;60.36
9462;BME280;4769;42.660;23.262;2023-03-13T02:20:17;94248.78;;;2.60;61.16
9462;BME280;4769;42.660;23.262;2023-03-13T02:22:46;94253.50;;;2.50;60.98
9462;BME280;4769;42.660;23.262;2023-03-13T02:27:55;94264.22;;;2.40;62.50
9462;BME280;4769;42.660;23.262;2023-03-13T02:30:22;94257.66;;;2.23;62.79
9462;BME280;4769;42.660;23.262;2023-03-13T02:32:48;94262.00;;;2.16;62.29
9462;BME280;4769;42.660;23.262;2023-03-13T02:35:17;94275.16;;;2.29;62.00
9462;BME280;4769;42.660;23.262;2023-03-13T02:37:48;94272.59;;;2.36;61.76
9462;BME280;4769;42.660;23.262;2023-03-13T02:40:19;94275.81;;;2.38;61.99
9462;BME280;4769;42.660;23.262;2023-03-13T02:42:47;94279.28;;;2.45;60.68
9462;BME280;4769;42.660;23.262;2023-03-13T02:45:17;94286.97;;;2.32;59.56
9462;BME280;4769;42.660;23.262;2023-03-13T02:47:43;94299.47;;;2.43;59.82
9462;BME280;4769;42.660;23.262;2023-03-13T02:50:10;94299.22;;;2.38;60.25
9462;BME280;4769;42.660;23.262;2023-03-13T02:52:38;94295.63;;;2.39;61.66
9462;BME280;4769;42.660;23.262;2023-03-13T02:55:11;94299.84;;;2.40;62.36
9462;BME280;4769;42.660;23.262;2023-03-13T02:57:38;94290.81;;;2.36;62.33
9462;BME280;4769;42.660;23.262;2023-03-13T03:00:06;94298.22;;;2.39;62.24
9462;BME280;4769;42.660;23.262;2023-03-13T03:02:35;94298.00;;;2.34;62.84
9462;BME280;4769;42.660;23.262;2023-03-13T03:05:00;94289.56;;;2.32;62.91
9462;BME280;4769;42.660;23.262;2023-03-13T03:07:26;94287.97;;;2.31;63.08
9462;BME280;4769;42.660;23.262;2023-03-13T03:09:52;94298.00;;;2.34;63.86
9462;BME280;4769;42.660;23.262;2023-03-13T03:12:17;94295.38;;;2.34;63.66
9462;BME280;4769;42.660;23.262;2023-03-13T03:14:43;94297.59;;;2.16;61.74
9462;BME280;4769;42.660;23.262;2023-03-13T03:17:09;94304.16;;;2.12;62.45
9462;BME280;4769;42.660;23.262;2023-03-13T03:19:37;94314.09;;;2.23;62.18
9462;BME280;4769;42.660;23.262;2023-03-13T03:22:03;94320.09;;;2.23;62.45
9462;BME280;4769;42.660;23.262;2023-03-13T03:24:28;94326.78;;;2.11;62.43
9462;BME280;4769;42.660;23.262;2023-03-13T03:26:54;94332.41;;;2.15;62.33
9462;BME280;4769;42.660;23.262;2023-03-13T03:29:20;94338.78;;;2.12;61.87
9462;BME280;4769;42.660;23.262;2023-03-13T03:31:46;94348.53;;;1.89;62.12
9462;BME280;4769;42.660;23.262;2023-03-13T03:34:12;94337.59;;;1.79;62.99
9462;BME280;4769;42.660;23.262;2023-03-13T03:36:40;94338.78;;;1.77;64.50
9462;BME280;4769;42.660;23.262;2023-03-13T03:39:06;94337.25;;;1.82;64.05
9462;BME280;4769;42.660;23.262;2023-03-13T03:41:31;94346.47;;;1.85;62.85
9462;BME280;4769;42.660;23.262;2023-03-13T03:43:57;94350.44;;;1.81;63.88
9462;BME280;4769;42.660;23.262;2023-03-13T03:46:23;94363.69;;;1.86;62.91
9462;BME280;4769;42.660;23.262;2023-03-13T03:48:48;94360.28;;;1.85;64.09
9462;BME280;4769;42.660;23.262;2023-03-13T03:51:14;94363.38;;;1.95;64.11
9462;BME280;4769;42.660;23.262;2023-03-13T03:53:42;94361.09;;;1.86;63.92
9462;BME280;4769;42.660;23.262;2023-03-13T03:56:08;94360.69;;;1.89;64.34
9462;BME280;4769;42.660;23.262;2023-03-13T03:58:34;94362.88;;;1.85;64.23
9462;BME280;4769;42.660;23.262;2023-03-13T04:00:59;94373.75;;;1.74;64.22
9462;BME280;4769;42.660;23.262;2023-03-13T04:03:25;94357.63;;;1.64;65.21
9462;BME280;4769;42.660;23.262;2023-03-13T04:05:51;94369.16;;;1.76;67.88
9462;BME280;4769;42.660;23.262;2023-03-13T04:08:17;94380.63;;;1.82;68.73
9462;BME280;4769;42.660;23.262;2023-03-13T04:10:45;94389.50;;;1.58;69.87
9462;BME280;4769;42.660;23.262;2023-03-13T04:13:11;94380.91;;;1.43;70.46
9462;BME280;4769;42.660;23.262;2023-03-13T04:15:37;94388.97;;;1.34;69.97
9462;BME280;4769;42.660;23.262;2023-03-13T04:18:03;94392.91;;;1.44;70.72
9462;BME280;4769;42.660;23.262;2023-03-13T04:20:29;94401.59;;;1.51;70.78
9462;BME280;4769;42.660;23.262;2023-03-13T04:22:54;94398.66;;;1.54;71.30
9462;BME280;4769;42.660;23.262;2023-03-13T04:25:20;94409.06;;;1.54;71.98
9462;BME280;4769;42.660;23.262;2023-03-13T04:27:49;94414.31;;;1.61;72.09
9462;BME280;4769;42.660;23.262;2023-03-13T04:30:15;94416.47;;;1.57;72.16
9462;BME280;4769;42.660;23.262;2023-03-13T04:32:41;94417.56;;;1.63;71.79
9462;BME280;4769;42.660;23.262;2023-03-13T04:35:07;94423.75;;;1.62;72.10
9462;BME280;4769;42.660;23.262;2023-03-13T04:37:33;94432.50;;;1.61;72.48
9462;BME280;4769;42.660;23.262;2023-03-13T04:39:58;94437.63;;;1.54;72.86
9462;BME280;4769;42.660;23.262;2023-03-13T04:42:24;94443.19;;;1.51;72.68
9462;BME280;4769;42.660;23.262;2023-03-13T04:44:53;94448.47;;;1.58;72.21
9462;BME280;4769;42.660;23.262;2023-03-13T04:47:19;94446.28;;;1.47;72.16
9462;BME280;4769;42.660;23.262;2023-03-13T04:49:44;94449.16;;;1.37;72.93
9462;BME280;4769;42.660;23.262;2023-03-13T04:52:10;94446.69;;;1.21;73.67
9462;BME280;4769;42.660;23.262;2023-03-13T04:54:36;94453.97;;;1.26;74.14
9462;BME280;4769;42.660;23.262;2023-03-13T04:57:01;94454.16;;;1.24;74.19
9462;BME280;4769;42.660;23.262;2023-03-13T04:59:27;94449.41;;;1.28;74.37
9462;BME280;4769;42.660;23.262;2023-03-13T05:01:55;94452.47;;;1.31;74.18
9462;BME280;4769;42.660;23.262;2023-03-13T05:04:21;94448.28;;;1.45;73.71
9462;BME280;4769;42.660;23.262;2023-03-13T05:06:47;94451.19;;;1.64;73.08
9462;BME280;4769;42.660;23.262;2023-03-13T05:09:13;94440.41;;;1.82;73.76
9462;BME280;4769;42.660;23.262;2023-03-13T05:11:38;94444.97;;;1.94;73.10
9462;BME280;4769;42.660;23.262;2023-03-13T05:14:04;94444.38;;;1.92;72.71
9462;BME280;4769;42.660;23.262;2023-03-13T05:16:30;94460.97;;;1.91;72.19
9462;BME280;4769;42.660;23.262;2023-03-13T05:18:58;94457.63;;;1.83;72.78
9462;BME280;4769;42.660;23.262;2023-03-13T05:21:24;94453.50;;;1.74;72.25
9462;BME280;4769;42.660;23.262;2023-03-13T05:23:50;94468.03;;;1.68;71.84
9462;BME280;4769;42.660;23.262;2023-03-13T05:26:15;94473.50;;;1.88;71.28
9462;BME280;4769;42.660;23.262;2023-03-13T05:28:41;94473.59;;;1.80;70.41
9462;BME280;4769;42.660;23.262;2023-03-13T05:31:07;94478.06;;;2.00;69.66
9462;BME280;4769;42.660;23.262;2023-03-13T05:33:32;94484.44;;;2.12;68.21
9462;BME280;4769;42.660;23.262;2023-03-13T05:36:01;94480.22;;;1.97;68.38
9462;BME280;4769;42.660;23.262;2023-03-13T05:38:26;94477.63;;;2.11;68.87
9462;BME280;4769;42.660;23.262;2023-03-13T05:40:52;94478.59;;;2.25;69.73
9462;BME280;4769;42.660;23.262;2023-03-13T05:43:18;94492.66;;;2.45;70.22
9462;BME280;4769;42.660;23.262;2023-03-13T05:45:43;94481.88;;;2.48;70.03
9462;BME280;4769;42.660;23.262;2023-03-13T05:48:09;94476.75;;;2.54;70.04
9462;BME280;4769;42.660;23.262;2023-03-13T05:50:35;94492.34;;;2.69;69.36
9462;BME280;4769;42.660;23.262;2023-03-13T05:53:03;94481.56;;;2.72;68.92
9462;BME280;4769;42.660;23.262;2023-03-13T05:55:29;94489.88;;;2.82;69.08
9462;BME280;4769;42.660;23.262;2023-03-13T05:57:55;94504.84;;;2.94;68.50
9462;BME280;4769;42.660;23.262;2023-03-13T06:00:21;94500.31;;;3.03;68.23
9462;BME280;4769;42.660;23.262;2023-03-13T06:02:47;94503.06;;;3.16;67.93
9462;BME280;4769;42.660;23.262;2023-03-13T06:05:12;94505.34;;;3.25;67.28
9462;BME280;4769;42.660;23.262;2023-03-13T06:07:38;94504.97;;;3.28;66.81
9462;BME280;4769;42.660;23.262;2023-03-13T06:10:08;94505.88;;;3.42;66.51
9462;BME280;4769;42.660;23.262;2023-03-13T06:12:34;94509.97;;;3.51;65.23
9462;BME280;4769;42.660;23.262;2023-03-13T06:15:00;94502.22;;;3.57;63.55
9462;BME280;4769;42.660;23.262;2023-03-13T06:17:26;94495.81;;;3.32;61.60
9462;BME280;4769;42.660;23.262;2023-03-13T06:19:52;94507.31;;;3.44;61.29
9462;BME280;4769;42.660;23.262;2023-03-13T06:22:18;94501.44;;;3.36;60.49
9462;BME280;4769;42.660;23.262;2023-03-13T06:24:43;94498.13;;;3.48;60.42
9462;BME280;4769;42.660;23.262;2023-03-13T06:27:12;94509.84;;;3.31;61.04
9462;BME280;4769;42.660;23.262;2023-03-13T06:29:38;94512.75;;;3.43;60.38
9462;BME280;4769;42.660;23.262;2023-03-13T06:32:04;94508.88;;;3.39;60.41
9462;BME280;4769;42.660;23.262;2023-03-13T06:34:30;94498.13;;;3.48;60.49
9462;BME280;4769;42.660;23.262;2023-03-13T06:36:55;94486.22;;;3.60;60.52
9462;BME280;4769;42.660;23.262;2023-03-13T06:39:21;94484.13;;;3.77;60.42
9462;BME280;4769;42.660;23.262;2023-03-13T06:41:47;94481.69;;;4.03;59.77
9462;BME280;4769;42.660;23.262;2023-03-13T06:44:15;94470.50;;;4.09;58.96
9462;BME280;4769;42.660;23.262;2023-03-13T06:46:41;94492.75;;;4.05;58.43
9462;BME280;4769;42.660;23.262;2023-03-13T06:49:06;94498.56;;;4.07;58.90
9462;BME280;4769;42.660;23.262;2023-03-13T06:51:32;94501.94;;;4.01;59.24
9462;BME280;4769;42.660;23.262;2023-03-13T06:53:58;94495.91;;;3.94;59.10
9462;BME280;4769;42.660;23.262;2023-03-13T06:56:25;94497.16;;;4.04;59.26
9462;BME280;4769;42.660;23.262;2023-03-13T06:58:51;94488.44;;;4.25;59.98
9462;BME280;4769;42.660;23.262;2023-03-13T07:01:19;94496.63;;;4.56;59.84
9462;BME280;4769;42.660;23.262;2023-03-13T07:03:46;94491.84;;;4.66;58.56
9462;BME280;4769;42.660;23.262;2023-03-13T07:06:12;94480.19;;;4.62;58.28
9462;BME280;4769;42.660;23.262;2023-03-13T07:08:38;94476.41;;;4.77;57.80
9462;BME280;4769;42.660;23.262;2023-03-13T07:11:05;94499.78;;;4.92;56.39
9462;BME280;4769;42.660;23.262;2023-03-13T07:13:32;94496.34;;;4.85;57.29
9462;BME280;4769;42.660;23.262;2023-03-13T07:15:59;94494.72;;;4.84;57.14
9462;BME280;4769;42.660;23.262;2023-03-13T07:18:27;94492.09;;;4.77;57.51
9462;BME280;4769;42.660;23.262;2023-03-13T07:20:54;94482.72;;;5.02;57.14
9462;BME280;4769;42.660;23.262;2023-03-13T07:23:20;94484.56;;;5.08;56.25
9462;BME280;4769;42.660;23.262;2023-03-13T07:25:52;94476.13;;;5.19;56.33
9462;BME280;4769;42.660;23.262;2023-03-13T07:28:17;94464.50;;;5.41;55.54
9462;BME280;4769;42.660;23.262;2023-03-13T07:30:43;94473.34;;;5.66;55.28
9462;BME280;4769;42.660;23.262;2023-03-13T07:33:09;94472.97;;;5.82;54.73
9462;BME280;4769;42.660;23.262;2023-03-13T07:35:37;94477.38;;;6.08;53.58
9462;BME280;4769;42.660;23.262;2023-03-13T07:38:03;94483.19;;;6.16;53.37
9462;BME280;4769;42.660;23.262;2023-03-13T07:40:28;94483.56;;;6.33;53.08
9462;BME280;4769;42.660;23.262;2023-03-13T07:42:54;94481.13;;;6.44;52.52
9462;BME280;4769;42.660;23.262;2023-03-13T07:45:19;94477.47;;;6.52;51.48
9462;BME280;4769;42.660;23.262;2023-03-13T07:47:45;94478.63;;;6.69;51.44
9462;BME280;4769;42.660;23.262;2023-03-13T07:50:11;94485.03;;;6.73;50.07
9462;BME280;4769;42.660;23.262;2023-03-13T07:52:39;94482.28;;;6.61;49.87
9462;BME280;4769;42.660;23.262;2023-03-13T07:55:05;94477.31;;;6.27;50.24
9462;BME280;4769;42.660;23.262;2023-03-13T07:57:31;94480.91;;;6.46;50.38
9462;BME280;4769;42.660;23.262;2023-03-13T07:59:57;94468.19;;;6.49;50.50
9462;BME280;4769;42.660;23.262;2023-03-13T08:02:22;94469.06;;;6.81;49.94
9462;BME280;4769;42.660;23.262;2023-03-13T08:04:50;94469.28;;;7.23;49.20
9462;BME280;4769;42.660;23.262;2023-03-13T08:07:16;94470.28;;;7.22;48.12
9462;BME280;4769;42.660;23.262;2023-03-13T08:09:44;94460.97;;;7.26;47.77
9462;BME280;4769;42.660;23.262;2023-03-13T08:12:10;94468.91;;;7.44;47.08
9462;BME280;4769;42.660;23.262;2023-03-13T08:14:36;94463.03;;;7.49;46.87
9462;BME280;4769;42.660;23.262;2023-03-13T08:17:02;94465.34;;;7.63;46.43
9462;BME280;4769;42.660;23.262;2023-03-13T08:19:28;94467.34;;;7.92;46.29
9462;BME280;4769;42.660;23.262;2023-03-13T08:21:53;94465.97;;;7.90;46.13
9462;BME280;4769;42.660;23.262;2023-03-13T08:24:19;94463.53;;;7.88;46.23
9462;BME280;4769;42.660;23.262;2023-03-13T08:26:47;94460.56;;;7.85;46.07
9462;BME280;4769;42.660;23.262;2023-03-13T08:29:13;94476.25;;;7.67;45.43
9462;BME280;4769;42.660;23.262;2023-03-13T08:31:42;94479.88;;;7.35;45.95
9462;BME280;4769;42.660;23.262;2023-03-13T08:34:10;94472.09;;;7.22;47.12
9462;BME280;4769;42.660;23.262;2023-03-13T08:36:36;94479.94;;;7.59;46.30
9462;BME280;4769;42.660;23.262;2023-03-13T08:39:05;94481.44;;;7.73;46.04
9462;BME280;4769;42.660;23.262;2023-03-13T08:41:32;94482.03;;;8.00;45.45
9462;BME280;4769;42.660;23.262;2023-03-13T08:44:01;94475.75;;;8.25;44.31
9462;BME280;4769;42.660;23.262;2023-03-13T08:46:28;94473.81;;;8.57;44.09
9462;BME280;4769;42.660;23.262;2023-03-13T08:48:54;94470.69;;;8.96;44.07
9462;BME280;4769;42.660;23.262;2023-03-13T08:51:21;94463.59;;;9.44;43.09
9462;BME280;4769;42.660;23.262;2023-03-13T08:53:47;94467.63;;;9.58;41.57
9462;BME280;4769;42.660;23.262;2023-03-13T08:56:15;94464.94;;;9.35;42.08
9462;BME280;4769;42.660;23.262;2023-03-13T08:58:41;94467.94;;;9.50;42.25
9462;BME280;4769;42.660;23.262;2023-03-13T09:01:11;94465.06;;;9.40;43.23
9462;BME280;4769;42.660;23.262;2023-03-13T09:03:38;94467.06;;;9.67;42.54
9462;BME280;4769;42.660;23.262;2023-03-13T09:06:04;94463.44;;;10.03;42.30
9462;BME280;4769;42.660;23.262;2023-03-13T09:08:31;94467.28;;;10.30;41.48
9462;BME280;4769;42.660;23.262;2023-03-13T09:10:57;94457.44;;;10.25;41.00
9462;BME280;4769;42.660;23.262;2023-03-13T09:13:24;94463.94;;;10.57;40.53
9462;BME280;4769;42.660;23.262;2023-03-13T09:15:54;94461.03;;;10.70;40.85
9462;BME280;4769;42.660;23.262;2023-03-13T09:18:22;94448.09;;;10.69;39.32
9462;BME280;4769;42.660;23.262;2023-03-13T09:20:48;94454.66;;;9.97;40.56
9462;BME280;4769;42.660;23.262;2023-03-13T09:23:14;94447.44;;;10.04;41.31
9462;BME280;4769;42.660;23.262;2023-03-13T09:25:40;94443.19;;;10.03;40.62
9462;BME280;4769;42.660;23.262;2023-03-13T09:28:06;94440.81;;;10.25;40.34
9462;BME280;4769;42.660;23.262;2023-03-13T09:30:32;94454.78;;;10.14;40.68
9462;BME280;4769;42.660;23.262;2023-03-13T09:32:58;94465.66;;;10.06;40.15
9462;BME280;4769;42.660;23.262;2023-03-13T09:35:26;94454.88;;;10.53;39.65
9462;BME280;4769;42.660;23.262;2023-03-13T09:37:52;94453.13;;;10.59;39.24
9462;BME280;4769;42.660;23.262;2023-03-13T09:40:20;94457.16;;;11.01;39.22
9462;BME280;4769;42.660;23.262;2023-03-13T09:42:48;94455.78;;;11.38;39.26
9462;BME280;4769;42.660;23.262;2023-03-13T09:45:28;94442.94;;;11.58;38.62
9462;BME280;4769;42.660;23.262;2023-03-13T09:47:58;94441.81;;;11.98;38.58
9462;BME280;4769;42.660;23.262;2023-03-13T09:50:32;94441.22;;;11.96;37.70
9462;BME280;4769;42.660;23.262;2023-03-13T09:53:03;94438.16;;;12.37;37.55
9462;BME280;4769;42.660;23.262;2023-03-13T09:55:32;94434.34;;;12.50;37.45
9462;BME280;4769;42.660;23.262;2023-03-13T09:58:02;94426.41;;;12.88;36.41
9462;BME280;4769;42.660;23.262;2023-03-13T10:00:31;94439.47;;;12.02;36.54
9462;BME280;4769;42.660;23.262;2023-03-13T10:03:04;94430.66;;;12.13;36.04
9462;BME280;4769;42.660;23.262;2023-03-13T10:05:37;94435.75;;;12.74;36.35
9462;BME280;4769;42.660;23.262;2023-03-13T10:08:11;94422.41;;;13.28;35.27
9462;BME280;4769;42.660;23.262;2023-03-13T10:10:43;94424.69;;;13.73;34.34
9462;BME280;4769;42.660;23.262;2023-03-13T10:13:15;94415.09;;;13.67;34.12
9462;BME280;4769;42.660;23.262;2023-03-13T10:15:49;94414.78;;;13.63;33.62
9462;BME280;4769;42.660;23.262;2023-03-13T10:18:17;94399.00;;;13.47;33.32
9462;BME280;4769;42.660;23.262;2023-03-13T10:20:48;94396.00;;;12.90;33.58
9462;BME280;4769;42.660;23.262;2023-03-13T10:23:19;94390.44;;;13.35;33.74
9462;BME280;4769;42.660;23.262;2023-03-13T10:25:46;94379.31;;;13.64;33.31
9462;BME280;4769;42.660;23.262;2023-03-13T10:28:13;94390.97;;;13.95;33.77
9462;BME280;4769;42.660;23.262;2023-03-13T10:30:45;94387.09;;;14.13;33.36
9462;BME280;4769;42.660;23.262;2023-03-13T10:33:19;94376.47;;;13.18;34.50
9462;BME280;4769;42.660;23.262;2023-03-13T10:36:03;94369.00;;;13.68;34.76
9462;BME280;4769;42.660;23.262;2023-03-13T10:38:32;94365.53;;;13.67;34.17
9462;BME280;4769;42.660;23.262;2023-03-13T10:41:00;94362.56;;;13.59;34.42
9462;BME280;4769;42.660;23.262;2023-03-13T10:43:27;94367.44;;;14.08;33.71
9462;BME280;4769;42.660;23.262;2023-03-13T10:45:54;94359.09;;;14.22;33.46
9462;BME280;4769;42.660;23.262;2023-03-13T10:48:21;94360.19;;;14.31;33.52
9462;BME280;4769;42.660;23.262;2023-03-13T10:50:51;94347.38;;;14.69;33.18
9462;BME280;4769;42.660;23.262;2023-03-13T10:53:30;94352.56;;;15.11;32.23
9462;BME280;4769;42.660;23.262;2023-03-13T10:56:02;94342.84;;;15.51;33.21
9462;BME280;4769;42.660;23.262;2023-03-13T10:58:35;94343.91;;;15.60;31.21
9462;BME280;4769;42.660;23.262;2023-03-13T11:01:17;94333.28;;;15.55;31.34
9462;BME280;4769;42.660;23.262;2023-03-13T11:03:46;94328.47;;;15.52;32.03
9462;BME280;4769;42.660;23.262;2023-03-13T11:06:30;94334.59;;;15.58;31.77
9462;BME280;4769;42.660;23.262;2023-03-13T11:09:08;94322.38;;;15.47;31.26
9462;BME280;4769;42.660;23.262;2023-03-13T11:11:43;94321.56;;;15.41;30.71
9462;BME280;4769;42.660;23.262;2023-03-13T11:14:13;94316.25;;;15.36;31.17
9462;BME280;4769;42.660;23.262;2023-03-13T11:16:46;94321.50;;;15.16;31.19
9462;BME280;4769;42.660;23.262;2023-03-13T11:19:28;94317.44;;;14.27;31.75
9462;BME280;4769;42.660;23.262;2023-03-13T11:22:06;94319.31;;;14.27;32.59
9462;BME280;4769;42.660;23.262;2023-03-13T11:24:41;94314.75;;;14.69;32.29
9462;BME280;4769;42.660;23.262;2023-03-13T11:27:16;94309.34;;;15.65;31.40
9462;BME280;4769;42.660;23.262;2023-03-13T11:29:53;94303.25;;;15.65;31.27
9462;BME280;4769;42.660;23.262;2023-03-13T11:32:22;94295.53;;;15.38;32.01
9462;BME280;4769;42.660;23.262;2023-03-13T11:34:53;94281.25;;;16.58;30.21
9462;BME280;4769;42.660;23.262;2023-03-13T11:37:27;94277.34;;;16.94;29.54
9462;BME280;4769;42.660;23.262;2023-03-13T11:40:03;94267.22;;;16.96;29.16
9462;BME280;4769;42.660;23.262;2023-03-13T11:42:53;94277.75;;;17.16;29.00
9462;BME280;4769;42.660;23.262;2023-03-13T11:45:46;94278.38;;;17.46;27.95
9462;BME280;4769;42.660;23.262;2023-03-13T11:48:18;94259.22;;;18.01;27.83
9462;BME280;4769;42.660;23.262;2023-03-13T11:50:51;94256.78;;;17.76;27.62
9462;BME280;4769;42.660;23.262;2023-03-13T11:53:33;94261.28;;;17.81;27.91
9462;BME280;4769;42.660;23.262;2023-03-13T11:56:06;94257.72;;;17.62;27.49
9462;BME280;4769;42.660;23.262;2023-03-13T11:58:41;94253.38;;;17.71;27.38
9462;BME280;4769;42.660;23.262;2023-03-13T12:01:11;94245.13;;;17.96;27.21
9462;BME280;4769;42.660;23.262;2023-03-13T12:03:42;94245.34;;;17.99;27.41
9462;BME280;4769;42.660;23.262;2023-03-13T12:06:18;94231.72;;;18.01;26.75
9462;BME280;4769;42.660;23.262;2023-03-13T12:08:52;94233.78;;;18.37;26.97
9462;BME280;4769;42.660;23.262;2023-03-13T12:11:22;94232.47;;;19.14;26.21
9462;BME280;4769;42.660;23.262;2023-03-13T12:13:55;94216.56;;;19.59;25.89
9462;BME280;4769;42.660;23.262;2023-03-13T12:16:24;94209.56;;;19.77;25.28
9462;BME280;4769;42.660;23.262;2023-03-13T12:18:52;94212.13;;;19.68;25.07
9462;BME280;4769;42.660;23.262;2023-03-13T12:21:21;94206.13;;;19.90;25.10
9462;BME280;4769;42.660;23.262;2023-03-13T12:23:54;94202.50;;;20.53;24.79
9462;BME280;4769;42.660;23.262;2023-03-13T12:26:29;94193.94;;;21.14;24.06
9462;BME280;4769;42.660;23.262;2023-03-13T12:29:04;94204.53;;;20.83;23.96
9462;BME280;4769;42.660;23.262;2023-03-13T12:31:35;94199.53;;;21.17;23.77
9462;BME280;4769;42.660;23.262;2023-03-13T12:34:10;94200.06;;;20.92;23.51
9462;BME280;4769;42.660;23.262;2023-03-13T12:36:40;94200.69;;;21.25;23.67
9462;BME280;4769;42.660;23.262;2023-03-13T12:39:19;94194.88;;;21.97;22.90
9462;BME280;4769;42.660;23.262;2023-03-13T12:41:49;94188.66;;;21.88;23.00
9462;BME280;4769;42.660;23.262;2023-03-13T12:44:19;94200.34;;;21.04;23.41
9462;BME280;4769;42.660;23.262;2023-03-13T12:46:56;94189.97;;;21.69;23.32
9462;BME280;4769;42.660;23.262;2023-03-13T12:49:36;94195.78;;;21.93;22.75
9462;BME280;4769;42.660;23.262;2023-03-13T12:52:41;94191.88;;;22.38;22.22
9462;BME280;4769;42.660;23.262;2023-03-13T12:55:31;94198.50;;;22.71;22.46
9462;BME280;4769;42.660;23.262;2023-03-13T12:58:09;94190.56;;;22.57;21.89
9462;BME280;4769;42.660;23.262;2023-03-13T13:00:39;94198.03;;;22.86;21.96
9462;BME280;4769;42.660;23.262;2023-03-13T13:03:14;94194.19;;;23.26;21.21
9462;BME280;4769;42.660;23.262;2023-03-13T13:06:07;94198.09;;;21.77;22.12
9462;BME280;4769;42.660;23.262;2023-03-13T13:08:37;94197.28;;;21.77;21.78
9462;BME280;4769;42.660;23.262;2023-03-13T13:14:04;94196.06;;;20.41;22.50
9462;BME280;4769;42.660;23.262;2023-03-13T13:16:51;94197.91;;;19.86;23.63
9462;BME280;4769;42.660;23.262;2023-03-13T13:19:44;94179.28;;;20.62;23.22
9462;BME280;4769;42.660;23.262;2023-03-13T13:25:28;94186.97;;;19.83;23.50
9462;BME280;4769;42.660;23.262;2023-03-13T13:27:54;94180.75;;;21.17;22.51
9462;BME280;4769;42.660;23.262;2023-03-13T13:30:33;94176.03;;;21.01;22.21
9462;BME280;4769;42.660;23.262;2023-03-13T13:38:49;94174.53;;;21.74;22.03
9462;BME280;4769;42.660;23.262;2023-03-13T13:41:25;94170.94;;;22.48;21.00